sensor_id;sensor_type;location;lat;lon;timestamp;P1;durP1;ratioP1;P2;durP2;ratioP2
53271;SDS011;39160;48.580;7.756;2023-07-31T00:03:12;3.15;;;1.30;;
53271;SDS011;39160;48.580;7.756;2023-07-31T00:08:02;3.17;;;0.90;;
53271;SDS011;39160;48.580;7.756;2023-07-31T00:12:53;3.53;;;1.10;;
53271;SDS011;39160;48.580;7.756;2023-07-31T00:17:44;3.47;;;1.30;;
53271;SDS011;39160;48.580;7.756;2023-07-31T00:22:35;3.22;;;1.10;;
53271;SDS011;39160;48.580;7.756;2023-07-31T00:27:26;1.85;;;0.77;;
53271;SDS011;39160;48.580;7.756;2023-07-31T00:32:17;2.47;;;0.80;;
53271;SDS011;39160;48.580;7.756;2023-07-31T00:37:07;5.93;;;1.38;;
53271;SDS011;39160;48.580;7.756;2023-07-31T00:41:58;2.05;;;0.93;;
53271;SDS011;39160;48.580;7.756;2023-07-31T00:46:49;2.60;;;1.00;;
53271;SDS011;39160;48.580;7.756;2023-07-31T00:51:39;3.15;;;1.38;;
53271;SDS011;39160;48.580;7.756;2023-07-31T00:56:30;2.30;;;0.95;;
53271;SDS011;39160;48.580;7.756;2023-07-31T01:01:21;2.92;;;1.10;;
53271;SDS011;39160;48.580;7.756;2023-07-31T01:06:21;2.03;;;0.90;;
53271;SDS011;39160;48.580;7.756;2023-07-31T01:11:33;2.60;;;0.90;;
53271;SDS011;39160;48.580;7.756;2023-07-31T01:16:27;2.30;;;1.00;;
53271;SDS011;39160;48.580;7.756;2023-07-31T01:26:23;2.55;;;1.38;;
53271;SDS011;39160;48.580;7.756;2023-07-31T01:31:20;2.08;;;0.90;;
53271;SDS011;39160;48.580;7.756;2023-07-31T01:36:15;3.03;;;1.20;;
53271;SDS011;39160;48.580;7.756;2023-07-31T01:41:06;1.40;;;0.90;;
53271;SDS011;39160;48.580;7.756;2023-07-31T01:45:57;5.82;;;0.93;;
53271;SDS011;39160;48.580;7.756;2023-07-31T01:50:47;1.92;;;0.98;;
53271;SDS011;39160;48.580;7.756;2023-07-31T01:55:38;1.92;;;1.00;;
53271;SDS011;39160;48.580;7.756;2023-07-31T02:00:29;3.10;;;1.20;;
53271;SDS011;39160;48.580;7.756;2023-07-31T02:05:19;1.10;;;1.00;;
53271;SDS011;39160;48.580;7.756;2023-07-31T02:10:10;2.55;;;0.82;;
53271;SDS011;39160;48.580;7.756;2023-07-31T02:15:00;5.85;;;1.30;;
53271;SDS011;39160;48.580;7.756;2023-07-31T02:19:51;2.70;;;1.20;;
53271;SDS011;39160;48.580;7.756;2023-07-31T02:24:42;2.05;;;0.90;;
53271;SDS011;39160;48.580;7.756;2023-07-31T02:29:32;1.20;;;0.73;;
53271;SDS011;39160;48.580;7.756;2023-07-31T02:34:23;4.32;;;1.58;;
53271;SDS011;39160;48.580;7.756;2023-07-31T02:39:13;3.22;;;1.23;;
53271;SDS011;39160;48.580;7.756;2023-07-31T02:44:04;3.97;;;1.17;;
53271;SDS011;39160;48.580;7.756;2023-07-31T02:48:54;2.33;;;1.45;;
53271;SDS011;39160;48.580;7.756;2023-07-31T02:53:45;1.25;;;0.82;;
53271;SDS011;39160;48.580;7.756;2023-07-31T02:58:36;1.92;;;1.23;;
53271;SDS011;39160;48.580;7.756;2023-07-31T03:03:26;2.25;;;1.30;;
53271;SDS011;39160;48.580;7.756;2023-07-31T03:08:17;3.75;;;1.20;;
53271;SDS011;39160;48.580;7.756;2023-07-31T03:13:08;4.35;;;1.60;;
53271;SDS011;39160;48.580;7.756;2023-07-31T03:17:59;2.50;;;2.03;;
53271;SDS011;39160;48.580;7.756;2023-07-31T03:22:49;2.20;;;1.13;;
53271;SDS011;39160;48.580;7.756;2023-07-31T03:27:40;2.45;;;1.05;;
53271;SDS011;39160;48.580;7.756;2023-07-31T03:32:30;2.42;;;1.23;;
53271;SDS011;39160;48.580;7.756;2023-07-31T03:37:21;2.58;;;1.35;;
53271;SDS011;39160;48.580;7.756;2023-07-31T03:42:11;1.88;;;1.20;;
53271;SDS011;39160;48.580;7.756;2023-07-31T03:47:02;1.67;;;1.15;;
53271;SDS011;39160;48.580;7.756;2023-07-31T03:51:53;3.28;;;1.20;;
53271;SDS011;39160;48.580;7.756;2023-07-31T03:56:44;2.28;;;0.95;;
53271;SDS011;39160;48.580;7.756;2023-07-31T04:01:35;1.38;;;0.90;;
53271;SDS011;39160;48.580;7.756;2023-07-31T04:06:25;2.22;;;1.05;;
53271;SDS011;39160;48.580;7.756;2023-07-31T04:11:16;6.13;;;1.35;;
53271;SDS011;39160;48.580;7.756;2023-07-31T04:16:06;2.13;;;1.30;;
53271;SDS011;39160;48.580;7.756;2023-07-31T04:20:57;3.08;;;1.27;;
53271;SDS011;39160;48.580;7.756;2023-07-31T04:25:48;1.67;;;1.15;;
53271;SDS011;39160;48.580;7.756;2023-07-31T04:30:39;3.67;;;1.83;;
53271;SDS011;39160;48.580;7.756;2023-07-31T04:35:29;3.67;;;1.25;;
53271;SDS011;39160;48.580;7.756;2023-07-31T04:40:20;14.82;;;1.50;;
53271;SDS011;39160;48.580;7.756;2023-07-31T04:45:11;2.83;;;1.50;;
53271;SDS011;39160;48.580;7.756;2023-07-31T04:50:02;2.22;;;1.08;;
53271;SDS011;39160;48.580;7.756;2023-07-31T04:54:53;3.10;;;1.05;;
53271;SDS011;39160;48.580;7.756;2023-07-31T04:59:43;3.58;;;1.63;;
53271;SDS011;39160;48.580;7.756;2023-07-31T05:04:34;1.17;;;1.00;;
53271;SDS011;39160;48.580;7.756;2023-07-31T05:09:25;1.95;;;1.10;;
53271;SDS011;39160;48.580;7.756;2023-07-31T05:14:16;1.85;;;1.15;;
53271;SDS011;39160;48.580;7.756;2023-07-31T05:19:07;1.88;;;1.20;;
53271;SDS011;39160;48.580;7.756;2023-07-31T05:23:57;1.70;;;1.13;;
53271;SDS011;39160;48.580;7.756;2023-07-31T05:28:48;3.50;;;1.27;;
53271;SDS011;39160;48.580;7.756;2023-07-31T05:33:39;3.25;;;1.30;;
53271;SDS011;39160;48.580;7.756;2023-07-31T05:38:29;2.17;;;1.30;;
53271;SDS011;39160;48.580;7.756;2023-07-31T05:43:20;4.78;;;2.20;;
53271;SDS011;39160;48.580;7.756;2023-07-31T05:48:11;2.03;;;1.30;;
53271;SDS011;39160;48.580;7.756;2023-07-31T05:53:02;2.67;;;2.00;;
53271;SDS011;39160;48.580;7.756;2023-07-31T05:57:53;2.15;;;1.00;;
53271;SDS011;39160;48.580;7.756;2023-07-31T06:02:44;2.50;;;1.10;;
53271;SDS011;39160;48.580;7.756;2023-07-31T06:07:34;3.15;;;1.20;;
53271;SDS011;39160;48.580;7.756;2023-07-31T06:12:28;3.05;;;1.52;;
53271;SDS011;39160;48.580;7.756;2023-07-31T06:17:19;2.42;;;1.13;;
53271;SDS011;39160;48.580;7.756;2023-07-31T06:22:11;4.80;;;1.70;;
53271;SDS011;39160;48.580;7.756;2023-07-31T06:27:02;2.33;;;1.50;;
53271;SDS011;39160;48.580;7.756;2023-07-31T06:31:54;1.80;;;1.10;;
53271;SDS011;39160;48.580;7.756;2023-07-31T06:36:45;4.53;;;1.60;;
53271;SDS011;39160;48.580;7.756;2023-07-31T06:41:36;2.20;;;1.38;;
53271;SDS011;39160;48.580;7.756;2023-07-31T06:46:28;3.00;;;1.35;;
53271;SDS011;39160;48.580;7.756;2023-07-31T06:51:19;3.92;;;1.50;;
53271;SDS011;39160;48.580;7.756;2023-07-31T06:56:09;5.68;;;1.40;;
53271;SDS011;39160;48.580;7.756;2023-07-31T07:01:00;2.58;;;1.50;;
53271;SDS011;39160;48.580;7.756;2023-07-31T07:05:51;2.70;;;1.60;;
53271;SDS011;39160;48.580;7.756;2023-07-31T07:10:41;4.05;;;1.85;;
53271;SDS011;39160;48.580;7.756;2023-07-31T07:15:32;2.75;;;1.73;;
53271;SDS011;39160;48.580;7.756;2023-07-31T07:20:23;2.83;;;1.77;;
53271;SDS011;39160;48.580;7.756;2023-07-31T07:25:14;3.92;;;1.75;;
53271;SDS011;39160;48.580;7.756;2023-07-31T07:30:05;3.97;;;1.42;;
53271;SDS011;39160;48.580;7.756;2023-07-31T07:34:57;2.75;;;1.25;;
53271;SDS011;39160;48.580;7.756;2023-07-31T07:39:48;3.47;;;1.30;;
53271;SDS011;39160;48.580;7.756;2023-07-31T07:44:38;3.10;;;1.55;;
53271;SDS011;39160;48.580;7.756;2023-07-31T07:49:29;6.25;;;1.58;;
53271;SDS011;39160;48.580;7.756;2023-07-31T07:54:20;4.10;;;1.40;;
53271;SDS011;39160;48.580;7.756;2023-07-31T07:59:11;3.13;;;1.50;;
53271;SDS011;39160;48.580;7.756;2023-07-31T08:04:01;1.55;;;1.05;;
53271;SDS011;39160;48.580;7.756;2023-07-31T08:08:53;2.13;;;1.35;;
53271;SDS011;39160;48.580;7.756;2023-07-31T08:13:44;3.78;;;1.33;;
53271;SDS011;39160;48.580;7.756;2023-07-31T08:18:35;6.47;;;2.33;;
53271;SDS011;39160;48.580;7.756;2023-07-31T08:23:26;4.47;;;1.50;;
53271;SDS011;39160;48.580;7.756;2023-07-31T08:28:17;4.15;;;1.13;;
53271;SDS011;39160;48.580;7.756;2023-07-31T08:33:07;3.30;;;1.52;;
53271;SDS011;39160;48.580;7.756;2023-07-31T08:37:58;3.88;;;1.67;;
53271;SDS011;39160;48.580;7.756;2023-07-31T08:42:50;2.50;;;1.40;;
53271;SDS011;39160;48.580;7.756;2023-07-31T08:47:47;2.53;;;1.00;;
53271;SDS011;39160;48.580;7.756;2023-07-31T08:52:39;2.35;;;1.55;;
53271;SDS011;39160;48.580;7.756;2023-07-31T08:57:29;2.90;;;1.48;;
53271;SDS011;39160;48.580;7.756;2023-07-31T09:02:21;4.32;;;1.63;;
53271;SDS011;39160;48.580;7.756;2023-07-31T09:07:15;3.05;;;1.25;;
53271;SDS011;39160;48.580;7.756;2023-07-31T09:12:07;2.40;;;1.25;;
53271;SDS011;39160;48.580;7.756;2023-07-31T09:16:58;4.70;;;1.83;;
53271;SDS011;39160;48.580;7.756;2023-07-31T09:21:49;3.80;;;1.30;;
53271;SDS011;39160;48.580;7.756;2023-07-31T09:26:40;5.40;;;1.55;;
53271;SDS011;39160;48.580;7.756;2023-07-31T09:31:31;2.35;;;1.58;;
53271;SDS011;39160;48.580;7.756;2023-07-31T09:36:32;2.60;;;1.30;;
53271;SDS011;39160;48.580;7.756;2023-07-31T09:41:30;2.80;;;1.50;;
53271;SDS011;39160;48.580;7.756;2023-07-31T09:46:21;2.90;;;1.00;;
53271;SDS011;39160;48.580;7.756;2023-07-31T09:51:12;3.25;;;1.40;;
53271;SDS011;39160;48.580;7.756;2023-07-31T09:56:02;2.20;;;1.35;;
53271;SDS011;39160;48.580;7.756;2023-07-31T10:00:55;3.00;;;1.42;;
53271;SDS011;39160;48.580;7.756;2023-07-31T10:05:50;2.27;;;1.23;;
53271;SDS011;39160;48.580;7.756;2023-07-31T10:10:43;3.30;;;1.70;;
53271;SDS011;39160;48.580;7.756;2023-07-31T10:15:35;4.53;;;2.35;;
53271;SDS011;39160;48.580;7.756;2023-07-31T10:20:26;3.08;;;1.63;;
53271;SDS011;39160;48.580;7.756;2023-07-31T10:25:19;4.80;;;1.45;;
53271;SDS011;39160;48.580;7.756;2023-07-31T10:30:12;4.18;;;1.58;;
53271;SDS011;39160;48.580;7.756;2023-07-31T10:35:05;3.20;;;1.45;;
53271;SDS011;39160;48.580;7.756;2023-07-31T10:40:03;3.67;;;1.50;;
53271;SDS011;39160;48.580;7.756;2023-07-31T10:44:59;4.15;;;2.15;;
53271;SDS011;39160;48.580;7.756;2023-07-31T10:49:51;2.85;;;1.50;;
53271;SDS011;39160;48.580;7.756;2023-07-31T10:54:42;3.45;;;1.38;;
53271;SDS011;39160;48.580;7.756;2023-07-31T10:59:34;1.58;;;1.17;;
53271;SDS011;39160;48.580;7.756;2023-07-31T11:04:25;3.78;;;1.92;;
53271;SDS011;39160;48.580;7.756;2023-07-31T11:09:17;4.20;;;1.55;;
53271;SDS011;39160;48.580;7.756;2023-07-31T11:14:07;3.05;;;1.45;;
53271;SDS011;39160;48.580;7.756;2023-07-31T11:19:00;4.25;;;1.50;;
53271;SDS011;39160;48.580;7.756;2023-07-31T11:23:52;2.70;;;1.60;;
53271;SDS011;39160;48.580;7.756;2023-07-31T11:28:47;2.15;;;1.27;;
53271;SDS011;39160;48.580;7.756;2023-07-31T11:33:38;4.40;;;1.83;;
53271;SDS011;39160;48.580;7.756;2023-07-31T11:38:32;2.40;;;1.60;;
53271;SDS011;39160;48.580;7.756;2023-07-31T11:43:24;3.50;;;1.80;;
53271;SDS011;39160;48.580;7.756;2023-07-31T11:48:19;3.03;;;1.27;;
53271;SDS011;39160;48.580;7.756;2023-07-31T11:53:11;2.47;;;1.23;;
53271;SDS011;39160;48.580;7.756;2023-07-31T11:58:03;4.30;;;1.80;;
53271;SDS011;39160;48.580;7.756;2023-07-31T12:02:54;8.57;;;1.63;;
53271;SDS011;39160;48.580;7.756;2023-07-31T12:07:46;3.88;;;1.75;;
53271;SDS011;39160;48.580;7.756;2023-07-31T12:12:38;3.72;;;1.58;;
53271;SDS011;39160;48.580;7.756;2023-07-31T12:17:28;4.18;;;1.90;;
53271;SDS011;39160;48.580;7.756;2023-07-31T12:22:19;3.38;;;1.83;;
53271;SDS011;39160;48.580;7.756;2023-07-31T12:27:14;3.80;;;2.00;;
53271;SDS011;39160;48.580;7.756;2023-07-31T12:32:18;3.43;;;1.90;;
53271;SDS011;39160;48.580;7.756;2023-07-31T12:37:10;3.15;;;1.42;;
53271;SDS011;39160;48.580;7.756;2023-07-31T12:42:00;2.78;;;1.52;;
53271;SDS011;39160;48.580;7.756;2023-07-31T12:46:51;2.42;;;1.75;;
53271;SDS011;39160;48.580;7.756;2023-07-31T12:51:41;3.78;;;1.50;;
53271;SDS011;39160;48.580;7.756;2023-07-31T12:56:32;3.78;;;1.73;;
53271;SDS011;39160;48.580;7.756;2023-07-31T13:01:23;3.25;;;1.50;;
53271;SDS011;39160;48.580;7.756;2023-07-31T13:06:13;3.53;;;1.73;;
53271;SDS011;39160;48.580;7.756;2023-07-31T13:11:04;2.95;;;1.35;;
53271;SDS011;39160;48.580;7.756;2023-07-31T13:15:55;2.58;;;1.48;;
53271;SDS011;39160;48.580;7.756;2023-07-31T13:20:45;3.00;;;1.80;;
53271;SDS011;39160;48.580;7.756;2023-07-31T13:25:36;3.38;;;1.90;;
53271;SDS011;39160;48.580;7.756;2023-07-31T13:30:26;3.92;;;1.80;;
53271;SDS011;39160;48.580;7.756;2023-07-31T13:35:17;4.43;;;1.85;;
53271;SDS011;39160;48.580;7.756;2023-07-31T13:40:08;5.85;;;2.13;;
53271;SDS011;39160;48.580;7.756;2023-07-31T13:44:59;3.72;;;1.88;;
53271;SDS011;39160;48.580;7.756;2023-07-31T13:49:50;3.15;;;2.33;;
53271;SDS011;39160;48.580;7.756;2023-07-31T13:54:41;3.35;;;1.23;;
53271;SDS011;39160;48.580;7.756;2023-07-31T13:59:33;2.90;;;1.58;;
53271;SDS011;39160;48.580;7.756;2023-07-31T14:04:23;3.05;;;1.40;;
53271;SDS011;39160;48.580;7.756;2023-07-31T14:09:14;2.88;;;1.35;;
53271;SDS011;39160;48.580;7.756;2023-07-31T14:14:04;4.55;;;1.55;;
53271;SDS011;39160;48.580;7.756;2023-07-31T14:18:55;1.83;;;1.45;;
53271;SDS011;39160;48.580;7.756;2023-07-31T14:23:45;4.15;;;1.35;;
53271;SDS011;39160;48.580;7.756;2023-07-31T14:28:36;2.20;;;1.30;;
53271;SDS011;39160;48.580;7.756;2023-07-31T14:33:28;2.50;;;1.70;;
53271;SDS011;39160;48.580;7.756;2023-07-31T14:38:18;6.80;;;1.73;;
53271;SDS011;39160;48.580;7.756;2023-07-31T14:43:09;3.50;;;1.50;;
53271;SDS011;39160;48.580;7.756;2023-07-31T14:47:59;2.03;;;1.13;;
53271;SDS011;39160;48.580;7.756;2023-07-31T14:52:50;2.33;;;1.45;;
53271;SDS011;39160;48.580;7.756;2023-07-31T14:57:41;2.53;;;1.48;;
53271;SDS011;39160;48.580;7.756;2023-07-31T15:02:31;1.90;;;1.38;;
53271;SDS011;39160;48.580;7.756;2023-07-31T15:07:22;2.80;;;1.30;;
53271;SDS011;39160;48.580;7.756;2023-07-31T15:12:13;4.15;;;1.92;;
53271;SDS011;39160;48.580;7.756;2023-07-31T15:17:03;4.20;;;1.90;;
53271;SDS011;39160;48.580;7.756;2023-07-31T15:21:54;2.50;;;1.38;;
53271;SDS011;39160;48.580;7.756;2023-07-31T15:26:45;2.97;;;1.40;;
53271;SDS011;39160;48.580;7.756;2023-07-31T15:31:36;3.30;;;1.45;;
53271;SDS011;39160;48.580;7.756;2023-07-31T15:36:30;1.67;;;1.00;;
53271;SDS011;39160;48.580;7.756;2023-07-31T15:41:22;3.40;;;1.42;;
53271;SDS011;39160;48.580;7.756;2023-07-31T15:46:13;4.00;;;1.88;;
53271;SDS011;39160;48.580;7.756;2023-07-31T15:51:04;4.90;;;1.70;;
53271;SDS011;39160;48.580;7.756;2023-07-31T15:55:54;3.15;;;1.85;;
53271;SDS011;39160;48.580;7.756;2023-07-31T16:00:45;4.75;;;1.42;;
53271;SDS011;39160;48.580;7.756;2023-07-31T16:05:36;3.33;;;1.38;;
53271;SDS011;39160;48.580;7.756;2023-07-31T16:10:27;2.38;;;1.23;;
53271;SDS011;39160;48.580;7.756;2023-07-31T16:15:17;4.00;;;1.70;;
53271;SDS011;39160;48.580;7.756;2023-07-31T16:20:08;1.92;;;1.52;;
53271;SDS011;39160;48.580;7.756;2023-07-31T16:24:59;3.00;;;1.85;;
53271;SDS011;39160;48.580;7.756;2023-07-31T16:29:50;6.57;;;1.70;;
53271;SDS011;39160;48.580;7.756;2023-07-31T16:34:41;2.20;;;1.33;;
53271;SDS011;39160;48.580;7.756;2023-07-31T16:39:31;3.00;;;1.63;;
53271;SDS011;39160;48.580;7.756;2023-07-31T16:44:25;2.85;;;1.90;;
53271;SDS011;39160;48.580;7.756;2023-07-31T16:49:15;2.50;;;1.42;;
53271;SDS011;39160;48.580;7.756;2023-07-31T16:54:06;4.18;;;2.10;;
53271;SDS011;39160;48.580;7.756;2023-07-31T16:58:56;6.75;;;1.95;;
53271;SDS011;39160;48.580;7.756;2023-07-31T17:03:47;2.47;;;1.40;;
53271;SDS011;39160;48.580;7.756;2023-07-31T17:08:38;5.57;;;2.28;;
53271;SDS011;39160;48.580;7.756;2023-07-31T17:13:28;3.22;;;2.10;;
53271;SDS011;39160;48.580;7.756;2023-07-31T17:18:19;2.92;;;2.00;;
53271;SDS011;39160;48.580;7.756;2023-07-31T17:23:09;4.88;;;2.53;;
53271;SDS011;39160;48.580;7.756;2023-07-31T17:28:00;4.57;;;2.38;;
53271;SDS011;39160;48.580;7.756;2023-07-31T17:32:51;4.95;;;2.30;;
53271;SDS011;39160;48.580;7.756;2023-07-31T17:37:41;4.85;;;2.38;;
53271;SDS011;39160;48.580;7.756;2023-07-31T17:42:32;5.32;;;3.13;;
53271;SDS011;39160;48.580;7.756;2023-07-31T17:47:22;8.57;;;2.88;;
53271;SDS011;39160;48.580;7.756;2023-07-31T17:52:13;4.22;;;2.45;;
53271;SDS011;39160;48.580;7.756;2023-07-31T17:57:04;6.55;;;2.30;;
53271;SDS011;39160;48.580;7.756;2023-07-31T18:01:54;4.03;;;2.08;;
53271;SDS011;39160;48.580;7.756;2023-07-31T18:06:45;5.35;;;2.67;;
53271;SDS011;39160;48.580;7.756;2023-07-31T18:11:36;5.15;;;2.20;;
53271;SDS011;39160;48.580;7.756;2023-07-31T18:16:26;3.65;;;2.17;;
53271;SDS011;39160;48.580;7.756;2023-07-31T18:21:17;5.45;;;2.55;;
53271;SDS011;39160;48.580;7.756;2023-07-31T18:26:07;6.60;;;3.33;;
53271;SDS011;39160;48.580;7.756;2023-07-31T18:31:01;6.38;;;2.33;;
53271;SDS011;39160;48.580;7.756;2023-07-31T18:35:52;4.87;;;3.03;;
53271;SDS011;39160;48.580;7.756;2023-07-31T18:40:43;6.55;;;2.75;;
53271;SDS011;39160;48.580;7.756;2023-07-31T18:45:34;7.38;;;2.88;;
53271;SDS011;39160;48.580;7.756;2023-07-31T18:50:24;5.32;;;2.60;;
53271;SDS011;39160;48.580;7.756;2023-07-31T18:55:15;8.95;;;3.13;;
53271;SDS011;39160;48.580;7.756;2023-07-31T19:00:06;7.00;;;2.83;;
53271;SDS011;39160;48.580;7.756;2023-07-31T19:04:57;6.22;;;2.85;;
53271;SDS011;39160;48.580;7.756;2023-07-31T19:09:48;6.38;;;3.25;;
53271;SDS011;39160;48.580;7.756;2023-07-31T19:14:39;5.93;;;3.45;;
53271;SDS011;39160;48.580;7.756;2023-07-31T19:19:30;4.60;;;2.65;;
53271;SDS011;39160;48.580;7.756;2023-07-31T19:24:20;5.60;;;2.85;;
53271;SDS011;39160;48.580;7.756;2023-07-31T19:29:12;4.95;;;3.03;;
53271;SDS011;39160;48.580;7.756;2023-07-31T19:34:03;8.15;;;2.90;;
53271;SDS011;39160;48.580;7.756;2023-07-31T19:38:54;4.57;;;2.30;;
53271;SDS011;39160;48.580;7.756;2023-07-31T19:43:44;4.63;;;2.13;;
53271;SDS011;39160;48.580;7.756;2023-07-31T19:48:35;5.78;;;2.30;;
53271;SDS011;39160;48.580;7.756;2023-07-31T19:53:26;3.60;;;2.33;;
53271;SDS011;39160;48.580;7.756;2023-07-31T19:58:16;4.82;;;2.45;;
53271;SDS011;39160;48.580;7.756;2023-07-31T20:03:07;4.82;;;2.67;;
53271;SDS011;39160;48.580;7.756;2023-07-31T20:07:58;6.78;;;2.70;;
53271;SDS011;39160;48.580;7.756;2023-07-31T20:12:48;4.82;;;2.85;;
53271;SDS011;39160;48.580;7.756;2023-07-31T20:17:39;7.68;;;2.97;;
53271;SDS011;39160;48.580;7.756;2023-07-31T20:22:29;6.05;;;2.22;;
53271;SDS011;39160;48.580;7.756;2023-07-31T20:27:21;6.22;;;2.35;;
53271;SDS011;39160;48.580;7.756;2023-07-31T20:32:12;4.97;;;2.17;;
53271;SDS011;39160;48.580;7.756;2023-07-31T20:37:02;3.47;;;1.90;;
53271;SDS011;39160;48.580;7.756;2023-07-31T20:41:53;4.18;;;2.47;;
53271;SDS011;39160;48.580;7.756;2023-07-31T20:46:45;3.28;;;2.03;;
53271;SDS011;39160;48.580;7.756;2023-07-31T20:51:45;8.85;;;2.28;;
53271;SDS011;39160;48.580;7.756;2023-07-31T20:56:37;3.47;;;2.00;;
53271;SDS011;39160;48.580;7.756;2023-07-31T21:01:28;4.13;;;1.80;;
53271;SDS011;39160;48.580;7.756;2023-07-31T21:06:19;5.65;;;2.63;;
53271;SDS011;39160;48.580;7.756;2023-07-31T21:11:10;4.22;;;2.20;;
53271;SDS011;39160;48.580;7.756;2023-07-31T21:16:02;4.68;;;2.80;;
53271;SDS011;39160;48.580;7.756;2023-07-31T21:20:52;5.03;;;2.10;;
53271;SDS011;39160;48.580;7.756;2023-07-31T21:25:43;4.07;;;2.67;;
53271;SDS011;39160;48.580;7.756;2023-07-31T21:30:34;3.88;;;2.33;;
53271;SDS011;39160;48.580;7.756;2023-07-31T21:35:25;4.55;;;2.13;;
53271;SDS011;39160;48.580;7.756;2023-07-31T21:40:15;2.78;;;2.05;;
53271;SDS011;39160;48.580;7.756;2023-07-31T21:45:06;3.95;;;2.30;;
53271;SDS011;39160;48.580;7.756;2023-07-31T21:49:57;4.05;;;2.28;;
53271;SDS011;39160;48.580;7.756;2023-07-31T21:54:48;3.60;;;1.95;;
53271;SDS011;39160;48.580;7.756;2023-07-31T21:59:38;5.32;;;2.40;;
53271;SDS011;39160;48.580;7.756;2023-07-31T22:04:29;4.85;;;1.70;;
53271;SDS011;39160;48.580;7.756;2023-07-31T22:09:20;4.80;;;2.38;;
53271;SDS011;39160;48.580;7.756;2023-07-31T22:14:11;3.10;;;1.80;;
53271;SDS011;39160;48.580;7.756;2023-07-31T22:19:01;4.72;;;2.33;;
53271;SDS011;39160;48.580;7.756;2023-07-31T22:23:52;3.03;;;2.00;;
53271;SDS011;39160;48.580;7.756;2023-07-31T22:28:43;4.50;;;2.05;;
53271;SDS011;39160;48.580;7.756;2023-07-31T22:33:33;3.40;;;2.00;;
53271;SDS011;39160;48.580;7.756;2023-07-31T22:38:25;3.35;;;1.92;;
53271;SDS011;39160;48.580;7.756;2023-07-31T22:43:15;4.80;;;2.67;;
53271;SDS011;39160;48.580;7.756;2023-07-31T22:48:06;2.35;;;2.00;;
53271;SDS011;39160;48.580;7.756;2023-07-31T22:52:56;4.65;;;2.33;;
53271;SDS011;39160;48.580;7.756;2023-07-31T22:57:47;2.85;;;1.67;;
53271;SDS011;39160;48.580;7.756;2023-07-31T23:02:38;5.35;;;2.30;;
53271;SDS011;39160;48.580;7.756;2023-07-31T23:07:28;3.42;;;1.80;;
53271;SDS011;39160;48.580;7.756;2023-07-31T23:12:19;7.80;;;2.15;;
53271;SDS011;39160;48.580;7.756;2023-07-31T23:17:10;4.13;;;1.52;;
53271;SDS011;39160;48.580;7.756;2023-07-31T23:22:00;4.25;;;2.08;;
53271;SDS011;39160;48.580;7.756;2023-07-31T23:26:51;3.30;;;1.88;;
53271;SDS011;39160;48.580;7.756;2023-07-31T23:31:42;4.53;;;1.88;;
53271;SDS011;39160;48.580;7.756;2023-07-31T23:36:34;3.53;;;2.45;;
53271;SDS011;39160;48.580;7.756;2023-07-31T23:41:25;3.47;;;1.83;;
53271;SDS011;39160;48.580;7.756;2023-07-31T23:46:16;4.72;;;2.03;;
53271;SDS011;39160;48.580;7.756;2023-07-31T23:51:06;3.58;;;2.00;;
53271;SDS011;39160;48.580;7.756;2023-07-31T23:55:57;4.00;;;2.17;;
